North Pekin, Illinois
Current Conditions -  °F | °C
As of 8:54 AM on Wednesday 22 Oct 2014 (Local Time) from KPIA Reporting Station
Clear Clear  
Wind Chill: 40°   Ceiling: Unl
Heat Index: 44°   Visibility: 9mi
Dew Point: 39°   Wind: 7mph
Humidity: 82%   Direction: 80°E
Pressure: 30.35"   Gusts: NA
Location:  40.5452°N, 89.6011°W
Report Text: KPIA 221354Z 08006KT 9SM CLR 07/04 A3035 RMK AO2 SLP282 T00670039
Loading
Personal Weather Stations






























Interactive Weather Map
Tropical Storm Tracking
New forecast layout! Learn more

10-Day Weather Forecast

Advertisements
Track Severe Weather on mobile